Linda L. Miller — WDF5279 — position and weather

sailwx.info

Track history (hours):
 
Tides and Currents Weather Stations Pressure Air Temp Water Temp Dewpoint Dewpoint Depression Visibility Wind Speed Wind Dir Waves Ship Positions

Linda L. Miller

Owner: Miller's Launch, Staten Island, NY. More information available from US FCC via Universal Licensing System and Coast Guard Vessel Documentation Center.

Last reported at 2018-Feb-16 22:26 UTC. Time now 2018-Feb-19 02:02 UTC.
Position N 40°40' W 073°60'.

Length 9 m; draft 1.8 m.

MMSI: 367461380.

Date/timePositionNaut miles runAvg speedWind from/ knotsBaromVisibWave heightAir tempDewpointWater temp
2018-Feb-16 22:26N 40°40' W 073°60'0 0.0
2018-Feb-16 22:00N 40°40' W 073°60'0 0.0
2018-Feb-16 21:30N 40°40' W 073°60'0 0.0
2018-Feb-16 21:00N 40°40' W 073°60'0 0.0
2018-Feb-16 20:30N 40°40' W 073°60'0 0.0
2018-Feb-16 20:00N 40°40' W 073°60'0 0.0
2018-Feb-16 19:30N 40°40' W 073°60'0 0.0
2018-Feb-16 19:00N 40°40' W 073°60'0 0.0
2018-Feb-16 18:30N 40°40' W 073°60'0 0.1
2018-Feb-16 18:01N 40°40' W 073°60'0 0.0
2018-Feb-16 17:30N 40°40' W 073°60'0 0.0
2018-Feb-16 17:00N 40°40' W 073°60'0 0.0
2018-Feb-16 16:31N 40°40' W 073°60'0 0.0
2018-Feb-16 16:00N 40°40' W 073°60'0 0.4
2018-Feb-16 15:30N 40°40' W 074°00'2 3.6
2018-Feb-16 15:01N 40°41' W 074°02'2 4.4
2018-Feb-16 14:30N 40°44' W 074°02'1 2.7
2018-Feb-16 14:00N 40°45' W 074°01'1 1.2
2018-Feb-16 13:29N 40°46' W 074°01'0 0.2
2018-Feb-16 13:00N 40°46' W 074°01'0 1.0
2018-Feb-16 12:30N 40°45' W 074°01'4 7.2
2018-Feb-16 12:01N 40°42' W 074°02'3 6.7
2018-Feb-16 11:31N 40°39' W 074°04'1 0.0
2018-Feb-15 21:13N 40°38' W 074°04'0 0.1
2018-Feb-15 21:00N 40°38' W 074°04'2 3.0
2018-Feb-15 20:30N 40°39' W 074°03'2 1.9
2018-Feb-15 19:19N 40°40' W 074°00'0 0.1
2018-Feb-15 19:00N 40°40' W 073°60'0 0.0
2018-Feb-15 18:29N 40°40' W 073°60'0 0.0
2018-Feb-15 18:00N 40°40' W 073°60'0 0.0
2018-Feb-15 17:30N 40°40' W 073°60'0 0.0
2018-Feb-15 17:00N 40°40' W 073°60'0 0.0
2018-Feb-15 16:30N 40°40' W 073°60'0 0.0
2018-Feb-15 16:00N 40°40' W 073°60'0 0.0
2018-Feb-15 15:30N 40°40' W 073°60'0 0.0
2018-Feb-15 15:00N 40°40' W 073°60'0 0.0
2018-Feb-15 14:30N 40°40' W 073°60'0 0.0
2018-Feb-15 14:00N 40°40' W 073°60'0 0.0
2018-Feb-15 13:31N 40°40' W 073°60'0 0.0
2018-Feb-15 13:01N 40°40' W 073°60'0 0.1
2018-Feb-15 12:31N 40°40' W 074°00'0 0.0
2018-Feb-15 12:00N 40°40' W 074°00'0 0.0
2018-Feb-15 11:31N 40°40' W 074°00'0 0.0
2018-Feb-14 20:24N 40°40' W 074°00'0 0.1
2018-Feb-14 20:01N 40°40' W 073°60'0 0.0
2018-Feb-14 19:31N 40°40' W 073°60'0 0.0
2018-Feb-14 19:01N 40°40' W 073°60'0 0.0
2018-Feb-14 18:31N 40°40' W 073°60'0 0.0
2018-Feb-14 18:01N 40°40' W 073°60'0 0.0
2018-Feb-14 17:31N 40°40' W 073°60'0 0.0
2018-Feb-14 17:00N 40°40' W 073°60'0 0.0
2018-Feb-14 16:31N 40°40' W 073°60'0 0.0
2018-Feb-14 16:01N 40°40' W 073°60'0 0.0
2018-Feb-14 15:30N 40°40' W 073°60'0 0.0
2018-Feb-14 15:01N 40°40' W 073°60'0 0.0
2018-Feb-14 14:31N 40°40' W 073°60'0 0.0
2018-Feb-14 14:00N 40°40' W 073°60'0 0.0
2018-Feb-14 13:30N 40°40' W 073°60'0 0.0
2018-Feb-14 13:01N 40°40' W 073°60'0 0.1
2018-Feb-14 12:31N 40°40' W 074°00'0 0.0
2018-Feb-13 20:45N 40°40' W 074°00'0 0.5
2018-Feb-13 20:30N 40°40' W 074°00'0 0.0
2018-Feb-13 20:00N 40°40' W 074°00'0 0.0
2018-Feb-13 19:30N 40°40' W 074°00'0 0.0
2018-Feb-13 19:00N 40°40' W 074°00'0 0.0
2018-Feb-13 18:30N 40°40' W 074°00'0 0.0
2018-Feb-13 18:00N 40°40' W 074°00'0 0.0
2018-Feb-13 17:30N 40°40' W 074°00'0 0.0
2018-Feb-13 17:00N 40°40' W 074°00'0 0.0
2018-Feb-13 16:30N 40°40' W 074°00'0 0.0
2018-Feb-13 16:00N 40°40' W 074°00'0 0.0
2018-Feb-13 15:30N 40°40' W 074°00'0 0.0
2018-Feb-13 15:00N 40°40' W 074°00'0 0.0
2018-Feb-13 14:30N 40°40' W 074°00'0 0.0
2018-Feb-13 14:00N 40°40' W 074°00'0 0.0
2018-Feb-13 13:30N 40°40' W 074°00'0 0.2
2018-Feb-13 13:00N 40°40' W 074°00'0 0.0
2018-Feb-13 12:30N 40°40' W 074°00'0 0.0
2018-Feb-12 21:15N 40°40' W 074°00'0 0.3
2018-Feb-12 21:01N 40°40' W 073°60'0 0.0
2018-Feb-12 20:31N 40°40' W 073°60'0 0.0
2018-Feb-12 20:01N 40°40' W 073°60'0 0.0
2018-Feb-12 19:31N 40°40' W 073°60'0 0.0
2018-Feb-12 19:01N 40°40' W 073°60'0 0.0
2018-Feb-12 18:30N 40°40' W 073°60'0 0.0
2018-Feb-12 18:01N 40°40' W 073°60'0 0.0
2018-Feb-12 17:30N 40°40' W 073°60'0 0.0
2018-Feb-12 17:00N 40°40' W 073°60'0 0.0
2018-Feb-12 16:31N 40°40' W 073°60'0 0.0
2018-Feb-12 16:00N 40°40' W 073°60'0 0.0
2018-Feb-12 15:31N 40°40' W 073°60'0 0.0
2018-Feb-12 15:01N 40°40' W 073°60'0 0.0
2018-Feb-12 14:31N 40°40' W 073°60'0 0.0
2018-Feb-12 14:01N 40°40' W 073°60'0 0.2
2018-Feb-12 13:30N 40°40' W 074°00'0 0.0
2018-Feb-12 13:01N 40°40' W 074°00'0 0.0
2018-Feb-12 12:30N 40°40' W 074°00'0 0.0
2018-Feb-12 12:00N 40°40' W 074°00'0 0.0
2018-Feb-12 11:30N 40°40' W 074°00'1 1.2
2018-Feb-12 11:00N 40°40' W 074°01'2 4.5
2018-Feb-12 10:30N 40°38' W 074°03'1 1.9
2018-Feb-12 10:01N 40°38' W 074°04'0 0.0
2018-Feb-12 05:53N 40°38' W 074°04'0 0.2
2018-Feb-12 05:31N 40°38' W 074°04'0 0.4
2018-Feb-12 05:00N 40°38' W 074°04'0 0.6
2018-Feb-12 04:30N 40°38' W 074°04'0 0.0
2018-Feb-12 00:55N 40°38' W 074°04'0 0.2
2018-Feb-12 00:30N 40°38' W 074°04'0 0.1
2018-Feb-12 00:00N 40°38' W 074°04'0 0.7
2018-Feb-11 23:30N 40°38' W 074°04'0 0.0
2018-Feb-11 23:00N 40°38' W 074°04'0 0.0
2018-Feb-11 22:30N 40°38' W 074°04'0 0.0
2018-Feb-10 15:33N 40°38' W 074°04'0 0.9
2018-Feb-10 15:30N 40°38' W 074°04'0 0.0
2018-Feb-09 17:31N 40°38' W 074°04'0 0.0
2018-Feb-09 15:00N 40°38' W 074°04'0 0.0
2018-Feb-08 17:00N 40°38' W 074°04'3 5.2
2018-Feb-08 16:30N 40°39' W 074°01'1 0.7
2018-Feb-08 15:00N 40°40' W 074°00'0 0.0
2018-Feb-08 13:30N 40°40' W 074°00'0 0.1
2018-Feb-08 13:00N 40°40' W 074°00'0 0.0
2018-Feb-08 12:30N 40°40' W 074°00'0 0.0
2018-Feb-08 12:00N 40°40' W 074°00'0 0.0
2018-Feb-08 11:30N 40°40' W 074°00'  
Track history (hours):
 
Tides and Currents Weather Stations Pressure Air Temp Water Temp Dewpoint Dewpoint Depression Visibility Wind Speed Wind Dir Waves Ship Positions

Linda L. Miller

Owner: Miller's Launch, Staten Island, NY. More information available from US FCC via Universal Licensing System and Coast Guard Vessel Documentation Center.

Last reported at 2018-Feb-16 22:26 UTC. Time now 2018-Feb-19 02:02 UTC.
Position N 40°40' W 073°60'.

Length 9 m; draft 1.8 m.

MMSI: 367461380.

Date/timePositionNaut miles runAvg speedWind from/ knotsBaromVisibWave heightAir tempDewpointWater temp
2018-Feb-16 22:26N 40°40' W 073°60'0 0.0
2018-Feb-16 22:00N 40°40' W 073°60'0 0.0
2018-Feb-16 21:30N 40°40' W 073°60'0 0.0
2018-Feb-16 21:00N 40°40' W 073°60'0 0.0
2018-Feb-16 20:30N 40°40' W 073°60'0 0.0
2018-Feb-16 20:00N 40°40' W 073°60'0 0.0
2018-Feb-16 19:30N 40°40' W 073°60'0 0.0
2018-Feb-16 19:00N 40°40' W 073°60'0 0.0
2018-Feb-16 18:30N 40°40' W 073°60'0 0.1
2018-Feb-16 18:01N 40°40' W 073°60'0 0.0
2018-Feb-16 17:30N 40°40' W 073°60'0 0.0
2018-Feb-16 17:00N 40°40' W 073°60'0 0.0
2018-Feb-16 16:31N 40°40' W 073°60'0 0.0
2018-Feb-16 16:00N 40°40' W 073°60'0 0.4
2018-Feb-16 15:30N 40°40' W 074°00'2 3.6
2018-Feb-16 15:01N 40°41' W 074°02'2 4.4
2018-Feb-16 14:30N 40°44' W 074°02'1 2.7
2018-Feb-16 14:00N 40°45' W 074°01'1 1.2
2018-Feb-16 13:29N 40°46' W 074°01'0 0.2
2018-Feb-16 13:00N 40°46' W 074°01'0 1.0
2018-Feb-16 12:30N 40°45' W 074°01'4 7.2
2018-Feb-16 12:01N 40°42' W 074°02'3 6.7
2018-Feb-16 11:31N 40°39' W 074°04'1 0.0
2018-Feb-15 21:13N 40°38' W 074°04'0 0.1
2018-Feb-15 21:00N 40°38' W 074°04'2 3.0
2018-Feb-15 20:30N 40°39' W 074°03'2 1.9
2018-Feb-15 19:19N 40°40' W 074°00'0 0.1
2018-Feb-15 19:00N 40°40' W 073°60'0 0.0
2018-Feb-15 18:29N 40°40' W 073°60'0 0.0
2018-Feb-15 18:00N 40°40' W 073°60'0 0.0
2018-Feb-15 17:30N 40°40' W 073°60'0 0.0
2018-Feb-15 17:00N 40°40' W 073°60'0 0.0
2018-Feb-15 16:30N 40°40' W 073°60'0 0.0
2018-Feb-15 16:00N 40°40' W 073°60'0 0.0
2018-Feb-15 15:30N 40°40' W 073°60'0 0.0
2018-Feb-15 15:00N 40°40' W 073°60'0 0.0
2018-Feb-15 14:30N 40°40' W 073°60'0 0.0
2018-Feb-15 14:00N 40°40' W 073°60'0 0.0
2018-Feb-15 13:31N 40°40' W 073°60'0 0.0
2018-Feb-15 13:01N 40°40' W 073°60'0 0.1
2018-Feb-15 12:31N 40°40' W 074°00'0 0.0
2018-Feb-15 12:00N 40°40' W 074°00'0 0.0
2018-Feb-15 11:31N 40°40' W 074°00'0 0.0
2018-Feb-14 20:24N 40°40' W 074°00'0 0.1
2018-Feb-14 20:01N 40°40' W 073°60'0 0.0
2018-Feb-14 19:31N 40°40' W 073°60'0 0.0
2018-Feb-14 19:01N 40°40' W 073°60'0 0.0
2018-Feb-14 18:31N 40°40' W 073°60'0 0.0
2018-Feb-14 18:01N 40°40' W 073°60'0 0.0
2018-Feb-14 17:31N 40°40' W 073°60'0 0.0
2018-Feb-14 17:00N 40°40' W 073°60'0 0.0
2018-Feb-14 16:31N 40°40' W 073°60'0 0.0
2018-Feb-14 16:01N 40°40' W 073°60'0 0.0
2018-Feb-14 15:30N 40°40' W 073°60'0 0.0
2018-Feb-14 15:01N 40°40' W 073°60'0 0.0
2018-Feb-14 14:31N 40°40' W 073°60'0 0.0
2018-Feb-14 14:00N 40°40' W 073°60'0 0.0
2018-Feb-14 13:30N 40°40' W 073°60'0 0.0
2018-Feb-14 13:01N 40°40' W 073°60'0 0.1
2018-Feb-14 12:31N 40°40' W 074°00'0 0.0
2018-Feb-13 20:45N 40°40' W 074°00'0 0.5
2018-Feb-13 20:30N 40°40' W 074°00'0 0.0
2018-Feb-13 20:00N 40°40' W 074°00'0 0.0
2018-Feb-13 19:30N 40°40' W 074°00'0 0.0
2018-Feb-13 19:00N 40°40' W 074°00'0 0.0
2018-Feb-13 18:30N 40°40' W 074°00'0 0.0
2018-Feb-13 18:00N 40°40' W 074°00'0 0.0
2018-Feb-13 17:30N 40°40' W 074°00'0 0.0
2018-Feb-13 17:00N 40°40' W 074°00'0 0.0
2018-Feb-13 16:30N 40°40' W 074°00'0 0.0
2018-Feb-13 16:00N 40°40' W 074°00'0 0.0
2018-Feb-13 15:30N 40°40' W 074°00'0 0.0
2018-Feb-13 15:00N 40°40' W 074°00'0 0.0
2018-Feb-13 14:30N 40°40' W 074°00'0 0.0
2018-Feb-13 14:00N 40°40' W 074°00'0 0.0
2018-Feb-13 13:30N 40°40' W 074°00'0 0.2
2018-Feb-13 13:00N 40°40' W 074°00'0 0.0
2018-Feb-13 12:30N 40°40' W 074°00'0 0.0
2018-Feb-12 21:15N 40°40' W 074°00'0 0.3
2018-Feb-12 21:01N 40°40' W 073°60'0 0.0
2018-Feb-12 20:31N 40°40' W 073°60'0 0.0
2018-Feb-12 20:01N 40°40' W 073°60'0 0.0
2018-Feb-12 19:31N 40°40' W 073°60'0 0.0
2018-Feb-12 19:01N 40°40' W 073°60'0 0.0
2018-Feb-12 18:30N 40°40' W 073°60'0 0.0
2018-Feb-12 18:01N 40°40' W 073°60'0 0.0
2018-Feb-12 17:30N 40°40' W 073°60'0 0.0
2018-Feb-12 17:00N 40°40' W 073°60'0 0.0
2018-Feb-12 16:31N 40°40' W 073°60'0 0.0
2018-Feb-12 16:00N 40°40' W 073°60'0 0.0
2018-Feb-12 15:31N 40°40' W 073°60'0 0.0
2018-Feb-12 15:01N 40°40' W 073°60'0 0.0
2018-Feb-12 14:31N 40°40' W 073°60'0 0.0
2018-Feb-12 14:01N 40°40' W 073°60'0 0.2
2018-Feb-12 13:30N 40°40' W 074°00'0 0.0
2018-Feb-12 13:01N 40°40' W 074°00'0 0.0
2018-Feb-12 12:30N 40°40' W 074°00'0 0.0
2018-Feb-12 12:00N 40°40' W 074°00'0 0.0
2018-Feb-12 11:30N 40°40' W 074°00'1 1.2
2018-Feb-12 11:00N 40°40' W 074°01'2 4.5
2018-Feb-12 10:30N 40°38' W 074°03'1 1.9
2018-Feb-12 10:01N 40°38' W 074°04'0 0.0
2018-Feb-12 05:53N 40°38' W 074°04'0 0.2
2018-Feb-12 05:31N 40°38' W 074°04'0 0.4
2018-Feb-12 05:00N 40°38' W 074°04'0 0.6
2018-Feb-12 04:30N 40°38' W 074°04'0 0.0
2018-Feb-12 00:55N 40°38' W 074°04'0 0.2
2018-Feb-12 00:30N 40°38' W 074°04'0 0.1
2018-Feb-12 00:00N 40°38' W 074°04'0 0.7
2018-Feb-11 23:30N 40°38' W 074°04'0 0.0
2018-Feb-11 23:00N 40°38' W 074°04'0 0.0
2018-Feb-11 22:30N 40°38' W 074°04'0 0.0
2018-Feb-10 15:33N 40°38' W 074°04'0 0.9
2018-Feb-10 15:30N 40°38' W 074°04'0 0.0
2018-Feb-09 17:31N 40°38' W 074°04'0 0.0
2018-Feb-09 15:00N 40°38' W 074°04'0 0.0
2018-Feb-08 17:00N 40°38' W 074°04'3 5.2
2018-Feb-08 16:30N 40°39' W 074°01'1 0.7
2018-Feb-08 15:00N 40°40' W 074°00'0 0.0
2018-Feb-08 13:30N 40°40' W 074°00'0 0.1
2018-Feb-08 13:00N 40°40' W 074°00'0 0.0
2018-Feb-08 12:30N 40°40' W 074°00'0 0.0
2018-Feb-08 12:00N 40°40' W 074°00'0 0.0
2018-Feb-08 11:30N 40°40' W 074°00'  

Dump ship's entire track history